createdAt,value
2023-03-28T00:02:10.152Z,8.00
2023-03-28T00:04:37.589Z,7.10
2023-03-28T00:07:05.488Z,5.78
2023-03-28T00:09:32.946Z,6.05
2023-03-28T00:11:59.628Z,6.20
2023-03-28T00:14:26.337Z,5.00
2023-03-28T00:16:53.014Z,4.75
2023-03-28T00:19:25.492Z,4.25
2023-03-28T00:24:21.495Z,4.68
2023-03-28T00:26:49.730Z,5.68
2023-03-28T00:29:21.377Z,6.63
2023-03-28T00:31:50.321Z,4.40
2023-03-28T00:34:18.142Z,4.45
2023-03-28T00:36:45.186Z,5.63
2023-03-28T00:39:13.449Z,4.63
2023-03-28T00:41:43.514Z,7.15
2023-03-28T00:44:41.560Z,7.03
2023-03-28T00:47:17.930Z,5.40
2023-03-28T00:49:49.610Z,7.05
2023-03-28T00:52:18.237Z,7.55
2023-03-28T00:54:46.348Z,5.85
2023-03-28T00:57:16.481Z,8.75
2023-03-28T00:59:44.137Z,6.28
2023-03-28T01:02:11.859Z,5.30
2023-03-28T01:05:00.859Z,7.80
2023-03-28T01:07:33.316Z,6.43
2023-03-28T01:10:01.556Z,6.20
2023-03-28T01:12:28.261Z,9.07
2023-03-28T01:14:56.159Z,7.70
2023-03-28T01:17:25.786Z,5.28
2023-03-28T01:20:20.808Z,7.28
2023-03-28T01:22:56.381Z,7.18
2023-03-28T01:25:41.198Z,6.70
2023-03-28T01:28:31.453Z,7.65
2023-03-28T01:31:10.709Z,6.97
2023-03-28T01:34:41.016Z,5.60
2023-03-28T01:37:32.592Z,7.72
2023-03-28T01:40:16.388Z,7.57
2023-03-28T01:43:09.882Z,8.88
2023-03-28T01:45:58.193Z,8.48
2023-03-28T01:48:55.536Z,9.63
2023-03-28T01:51:59.706Z,6.88
2023-03-28T01:55:08.664Z,6.43
2023-03-28T01:57:46.212Z,7.75
2023-03-28T02:00:25.640Z,7.68
2023-03-28T02:03:25.127Z,6.40
2023-03-28T02:05:58.185Z,9.18
2023-03-28T02:08:32.494Z,6.55
2023-03-28T02:11:25.563Z,10.40
2023-03-28T02:14:23.817Z,10.13
2023-03-28T02:17:04.840Z,7.70
2023-03-28T02:19:59.520Z,9.93
2023-03-28T02:22:51.351Z,8.68
2023-03-28T02:25:46.153Z,7.68
2023-03-28T02:28:44.318Z,6.45
2023-03-28T02:31:46.521Z,8.35
2023-03-28T02:34:13.261Z,6.25
2023-03-28T02:37:05.600Z,8.05
2023-03-28T02:40:03.318Z,7.43
2023-03-28T02:42:56.168Z,11.02
2023-03-28T02:48:37.601Z,5.40
2023-03-28T02:51:16.232Z,5.53
2023-03-28T02:53:48.927Z,6.88
2023-03-28T02:56:43.206Z,6.40
2023-03-28T02:59:23.574Z,7.55
2023-03-28T03:01:50.446Z,4.57
2023-03-28T03:04:17.452Z,7.25
2023-03-28T03:06:48.467Z,4.55
2023-03-28T03:09:17.971Z,5.97
2023-03-28T03:11:44.612Z,5.00
2023-03-28T03:14:12.212Z,4.30
2023-03-28T03:16:38.979Z,6.88
2023-03-28T03:19:07.659Z,4.45
2023-03-28T03:21:34.406Z,7.55
2023-03-28T03:24:01.084Z,5.45
2023-03-28T03:26:27.774Z,2.97
2023-03-28T03:31:28.498Z,6.18
2023-03-28T03:34:13.956Z,4.57
2023-03-28T03:36:46.271Z,5.40
2023-03-28T03:39:13.312Z,10.93
2023-03-28T03:41:39.935Z,6.35
2023-03-28T03:44:06.655Z,5.63
2023-03-28T03:46:33.290Z,5.28
2023-03-28T03:49:00.038Z,5.80
2023-03-28T03:51:26.718Z,6.75
2023-03-28T03:53:55.087Z,8.27
2023-03-28T03:56:29.769Z,6.28
2023-03-28T03:58:57.997Z,6.85
2023-03-28T04:01:32.256Z,7.82
2023-03-28T04:04:11.919Z,6.50
2023-03-28T04:06:59.163Z,9.48
2023-03-28T04:09:29.221Z,11.15
2023-03-28T04:12:01.796Z,7.50
2023-03-28T04:14:31.354Z,7.30
2023-03-28T04:17:16.809Z,10.85
2023-03-28T04:19:43.906Z,12.30
2023-03-28T04:22:13.034Z,10.07
2023-03-28T04:24:46.239Z,10.25
2023-03-28T04:27:26.254Z,12.02
2023-03-28T04:29:56.417Z,10.88
2023-03-28T04:32:49.567Z,12.15
2023-03-28T04:35:24.262Z,11.05
2023-03-28T04:37:53.885Z,10.43
2023-03-28T04:40:24.268Z,16.67
2023-03-28T04:42:59.863Z,9.88
2023-03-28T04:45:35.171Z,10.43
2023-03-28T04:48:12.227Z,13.48
2023-03-28T04:50:39.040Z,9.55
2023-03-28T04:53:05.952Z,13.65
2023-03-28T04:55:33.084Z,11.13
2023-03-28T04:58:07.045Z,9.25
2023-03-28T05:00:33.831Z,11.35
2023-03-28T05:03:06.770Z,10.85
2023-03-28T05:05:41.413Z,13.23
2023-03-28T05:08:13.021Z,9.23
2023-03-28T05:10:40.636Z,11.48
2023-03-28T05:13:08.674Z,9.40
2023-03-28T05:15:46.097Z,7.50
2023-03-28T05:18:25.903Z,10.38
2023-03-28T05:20:52.867Z,10.43
2023-03-28T05:23:19.687Z,12.57
2023-03-28T05:25:51.958Z,10.95
2023-03-28T05:28:19.097Z,10.07
2023-03-28T05:30:50.043Z,11.77
2023-03-28T05:33:16.955Z,16.95
2023-03-28T05:35:45.047Z,17.25
2023-03-28T05:38:11.737Z,18.65
2023-03-28T05:40:38.477Z,13.07
2023-03-28T05:43:05.452Z,11.82
2023-03-28T05:45:33.371Z,12.05
2023-03-28T05:48:08.192Z,13.35
2023-03-28T05:50:36.469Z,10.13
2023-03-28T05:53:06.569Z,9.32
2023-03-28T05:55:35.565Z,12.63
2023-03-28T05:58:03.086Z,11.45
2023-03-28T06:00:37.213Z,7.47
2023-03-28T06:03:04.796Z,11.77
2023-03-28T06:05:35.877Z,8.57
2023-03-28T06:08:09.423Z,9.82
2023-03-28T06:10:36.912Z,7.03
2023-03-28T06:13:32.728Z,8.00
2023-03-28T06:15:59.591Z,8.60
2023-03-28T06:18:32.112Z,9.00
2023-03-28T06:20:59.224Z,7.65
2023-03-28T06:23:26.060Z,5.13
2023-03-28T06:25:52.968Z,8.77
2023-03-28T06:28:21.179Z,8.63
2023-03-28T06:31:20.185Z,7.57
2023-03-28T06:33:47.744Z,5.68
2023-03-28T06:36:17.551Z,6.90
2023-03-28T06:38:44.802Z,5.63
2023-03-28T06:41:11.580Z,6.55
2023-03-28T06:43:38.403Z,6.38
2023-03-28T06:46:09.691Z,8.50
2023-03-28T06:48:42.495Z,5.85
2023-03-28T06:51:24.432Z,6.75
2023-03-28T06:53:51.554Z,8.35
2023-03-28T06:56:23.759Z,9.05
2023-03-28T06:58:50.491Z,6.80
2023-03-28T07:01:22.340Z,8.57
2023-03-28T07:03:59.640Z,8.25
2023-03-28T07:06:27.889Z,7.72
2023-03-28T07:08:57.145Z,7.88
2023-03-28T07:11:32.692Z,8.23
2023-03-28T07:13:59.648Z,7.25
2023-03-28T07:16:26.359Z,8.23
2023-03-28T07:18:53.045Z,9.65
2023-03-28T07:21:24.295Z,7.57
2023-03-28T07:23:54.586Z,7.80
2023-03-28T07:26:27.664Z,9.38
2023-03-28T07:28:57.673Z,10.23
2023-03-28T07:31:25.865Z,8.27
2023-03-28T07:33:54.902Z,8.70
2023-03-28T07:36:22.090Z,6.95
2023-03-28T07:38:54.789Z,9.80
2023-03-28T07:41:22.766Z,11.18
2023-03-28T07:43:49.682Z,8.18
2023-03-28T07:46:16.643Z,6.00
2023-03-28T07:48:45.606Z,6.85
2023-03-28T07:51:13.045Z,11.23
2023-03-28T07:53:39.970Z,6.88
2023-03-28T07:56:12.156Z,6.93
2023-03-28T07:59:04.436Z,7.20
2023-03-28T08:01:32.091Z,8.38
2023-03-28T08:04:03.104Z,6.82
2023-03-28T08:06:41.744Z,7.25
2023-03-28T08:09:12.095Z,6.00
2023-03-28T08:11:43.180Z,5.28
2023-03-28T08:14:15.439Z,4.05
2023-03-28T08:19:11.668Z,7.47
2023-03-28T08:22:02.736Z,6.25
2023-03-28T08:24:36.129Z,7.75
2023-03-28T08:27:18.865Z,7.00
2023-03-28T08:29:48.695Z,6.47
2023-03-28T08:32:16.228Z,4.70
2023-03-28T08:34:43.535Z,6.65
2023-03-28T08:37:16.427Z,6.85
2023-03-28T08:39:47.437Z,6.22
2023-03-28T08:42:40.191Z,4.82
2023-03-28T08:45:18.743Z,4.78
2023-03-28T08:48:14.167Z,8.32
2023-03-28T08:51:06.209Z,5.00
2023-03-28T08:53:44.073Z,7.15
2023-03-28T08:56:15.530Z,6.38
2023-03-28T08:59:06.403Z,4.20
2023-03-28T09:01:34.218Z,5.05
2023-03-28T09:04:02.151Z,6.28
2023-03-28T09:06:39.943Z,6.70
2023-03-28T09:09:30.089Z,7.20
2023-03-28T09:12:31.501Z,4.53
2023-03-28T09:15:16.434Z,5.07
2023-03-28T09:18:01.434Z,4.00
2023-03-28T09:20:49.246Z,4.05
2023-03-28T09:23:43.447Z,4.82
2023-03-28T09:26:24.524Z,3.78
2023-03-28T09:29:18.940Z,2.95
2023-03-28T09:31:54.478Z,5.30
2023-03-28T09:34:27.507Z,4.50
2023-03-28T09:37:11.403Z,6.07
2023-03-28T09:39:49.199Z,3.85
2023-03-28T09:42:38.174Z,5.85
2023-03-28T09:45:35.653Z,3.40
2023-03-28T09:48:27.365Z,4.68
2023-03-28T09:50:58.080Z,5.03
2023-03-28T09:53:30.011Z,3.58
2023-03-28T09:56:06.287Z,4.75
2023-03-28T09:59:05.260Z,2.85
2023-03-28T10:01:45.346Z,2.78
2023-03-28T10:04:37.831Z,2.70
2023-03-28T10:07:34.022Z,3.78
2023-03-28T10:10:25.140Z,3.25
2023-03-28T10:13:04.259Z,2.88
2023-03-28T10:15:42.393Z,4.55
2023-03-28T10:18:29.888Z,5.72
2023-03-28T10:21:21.955Z,2.40
2023-03-28T10:24:06.557Z,2.53
2023-03-28T10:26:34.187Z,5.72
2023-03-28T10:29:07.645Z,4.22
2023-03-28T10:31:38.892Z,3.20
2023-03-28T10:34:35.134Z,3.70
2023-03-28T10:37:27.845Z,3.33
2023-03-28T10:40:20.849Z,3.50
2023-03-28T10:43:18.980Z,3.50
2023-03-28T10:46:13.187Z,3.13
2023-03-28T10:49:17.090Z,2.38
2023-03-28T10:54:28.953Z,4.95
2023-03-28T10:57:11.818Z,3.00
2023-03-28T10:59:51.385Z,6.07
2023-03-28T11:02:21.695Z,3.70
2023-03-28T11:04:57.718Z,3.85
2023-03-28T11:07:30.768Z,5.13
2023-03-28T11:10:44.325Z,2.95
2023-03-28T11:13:23.192Z,2.15
2023-03-28T11:16:03.844Z,4.25
2023-03-28T11:18:53.119Z,5.47
2023-03-28T11:21:24.692Z,5.70
2023-03-28T11:24:19.125Z,2.08
2023-03-28T11:27:31.367Z,3.25
2023-03-28T11:30:20.996Z,2.95
2023-03-28T11:33:11.282Z,2.50
2023-03-28T11:35:52.779Z,2.45
2023-03-28T11:38:47.540Z,2.53
2023-03-28T11:41:19.701Z,3.15
2023-03-28T11:44:41.542Z,3.95
2023-03-28T11:47:28.243Z,2.97
2023-03-28T11:50:15.366Z,2.25
2023-03-28T11:53:18.632Z,2.35
2023-03-28T11:56:06.758Z,3.38
2023-03-28T11:59:12.726Z,4.20
2023-03-28T12:01:44.770Z,1.80
2023-03-28T12:04:22.591Z,2.67
2023-03-28T12:07:08.067Z,2.97
2023-03-28T12:10:03.408Z,4.35
2023-03-28T12:12:35.522Z,2.80
2023-03-28T12:15:10.776Z,1.90
2023-03-28T12:18:12.619Z,2.72
2023-03-28T12:20:49.447Z,3.25
2023-03-28T12:23:44.932Z,2.00
2023-03-28T12:26:36.244Z,1.70
2023-03-28T12:29:16.177Z,5.25
2023-03-28T12:31:50.364Z,3.92
2023-03-28T12:34:56.169Z,1.90
2023-03-28T12:38:08.488Z,3.03
2023-03-28T12:40:47.163Z,4.85
2023-03-28T12:43:17.316Z,4.53
2023-03-28T12:45:53.311Z,3.15
2023-03-28T12:48:42.388Z,2.88
2023-03-28T12:51:17.845Z,4.43
2023-03-28T12:53:59.984Z,3.17
2023-03-28T12:56:27.211Z,2.45
2023-03-28T12:58:54.175Z,2.38
2023-03-28T13:01:34.418Z,3.65
2023-03-28T13:04:43.767Z,2.63
2023-03-28T13:08:02.347Z,2.72
2023-03-28T13:11:02.692Z,3.03
2023-03-28T13:13:48.264Z,2.92
2023-03-28T13:16:37.210Z,4.82
2023-03-28T13:19:10.792Z,4.32
2023-03-28T13:21:56.509Z,5.07
2023-03-28T13:24:26.204Z,1.80
2023-03-28T13:26:54.398Z,1.40
2023-03-28T13:29:21.223Z,2.83
2023-03-28T13:31:48.141Z,3.17
2023-03-28T13:34:25.166Z,2.50
2023-03-28T13:36:55.458Z,1.60
2023-03-28T13:39:26.212Z,4.35
2023-03-28T13:41:56.297Z,2.88
2023-03-28T13:44:42.752Z,3.50
2023-03-28T13:47:17.860Z,3.97
2023-03-28T13:49:59.889Z,11.40
2023-03-28T13:52:26.586Z,5.07
2023-03-28T13:55:00.840Z,13.15
2023-03-28T13:57:27.923Z,24.65
2023-03-28T14:00:00.872Z,4.95
2023-03-28T14:02:33.106Z,4.00
2023-03-28T14:05:12.039Z,3.13
2023-03-28T14:07:38.991Z,8.52
2023-03-28T14:10:29.567Z,2.67
2023-03-28T14:13:08.365Z,7.20
2023-03-28T14:15:39.319Z,2.78
2023-03-28T14:18:12.266Z,22.00
2023-03-28T14:20:40.358Z,5.45
2023-03-28T14:23:07.327Z,5.53
2023-03-28T14:25:34.368Z,17.45
2023-03-28T14:28:08.625Z,3.70
2023-03-28T14:30:41.150Z,3.72
2023-03-28T14:33:13.491Z,4.05
2023-03-28T14:35:42.437Z,1.67
2023-03-28T14:38:14.915Z,3.55
2023-03-28T14:40:44.047Z,4.70
2023-03-28T14:43:12.173Z,4.60
2023-03-28T14:45:45.727Z,1.98
2023-03-28T14:48:17.176Z,2.63
2023-03-28T14:50:45.990Z,3.92
2023-03-28T14:53:22.310Z,4.45
2023-03-28T14:55:51.082Z,2.10
2023-03-28T14:58:22.591Z,1.95
2023-03-28T15:00:53.239Z,2.22
2023-03-28T15:03:23.288Z,4.10
2023-03-28T15:05:52.068Z,4.20
2023-03-28T15:08:34.142Z,2.40
2023-03-28T15:11:29.314Z,2.25
2023-03-28T15:14:22.029Z,3.05
2023-03-28T15:16:48.940Z,3.75
2023-03-28T15:19:28.458Z,5.03
2023-03-28T15:22:02.505Z,5.25
2023-03-28T15:24:29.494Z,3.47
2023-03-28T15:26:59.564Z,4.80
2023-03-28T15:29:27.631Z,3.53
2023-03-28T15:32:02.794Z,4.85
2023-03-28T15:34:29.764Z,4.32
2023-03-28T15:37:03.158Z,3.83
2023-03-28T15:39:34.851Z,4.93
2023-03-28T15:42:10.583Z,4.20
2023-03-28T15:44:40.754Z,5.70
2023-03-28T15:47:14.957Z,3.13
2023-03-28T15:49:50.855Z,4.25
2023-03-28T15:52:47.587Z,4.60
2023-03-28T15:55:23.446Z,4.10
2023-03-28T15:58:21.719Z,4.38
2023-03-28T16:00:52.792Z,5.35
2023-03-28T16:03:32.886Z,4.57
2023-03-28T16:06:31.716Z,4.45
2023-03-28T16:09:29.933Z,4.88
2023-03-28T16:12:18.254Z,4.57
2023-03-28T16:15:48.513Z,4.00
2023-03-28T16:19:07.468Z,4.45
2023-03-28T16:21:44.712Z,5.10
2023-03-28T16:24:12.642Z,4.43
2023-03-28T16:26:47.988Z,3.80
2023-03-28T16:33:04.068Z,3.75
2023-03-28T16:36:06.955Z,5.30
2023-03-28T16:42:34.150Z,4.72
2023-03-28T16:45:03.079Z,3.03
2023-03-28T16:47:50.866Z,4.32
2023-03-28T16:50:47.166Z,4.32
2023-03-28T16:53:14.989Z,4.60
2023-03-28T16:55:45.788Z,5.35
2023-03-28T16:58:19.209Z,3.90
2023-03-28T17:00:50.529Z,6.30
2023-03-28T17:06:13.118Z,3.13
2023-03-28T17:08:42.665Z,5.32
2023-03-28T17:11:16.948Z,5.20
2023-03-28T17:13:48.033Z,4.55
2023-03-28T17:16:15.425Z,5.25
2023-03-28T17:18:52.546Z,3.28
2023-03-28T17:21:33.412Z,5.70
2023-03-28T17:24:05.866Z,4.85
2023-03-28T17:26:33.914Z,4.30
2023-03-28T17:29:03.614Z,4.78
2023-03-28T17:31:48.303Z,6.40
2023-03-28T17:34:17.390Z,4.82
2023-03-28T17:36:49.114Z,4.35
2023-03-28T17:39:17.543Z,3.65
2023-03-28T17:42:05.493Z,4.85
2023-03-28T17:47:46.682Z,3.30
2023-03-28T17:50:26.826Z,4.68
2023-03-28T17:53:10.527Z,4.95
2023-03-28T17:56:17.750Z,6.03
2023-03-28T17:58:48.402Z,4.68
2023-03-28T18:01:21.237Z,4.28
2023-03-28T18:03:49.681Z,4.07
2023-03-28T18:06:48.359Z,5.82
2023-03-28T18:09:48.745Z,5.55
2023-03-28T18:12:20.586Z,5.07
2023-03-28T18:14:54.657Z,5.85
2023-03-28T18:17:36.276Z,4.70
2023-03-28T18:20:16.941Z,4.13
2023-03-28T18:22:47.921Z,6.82
2023-03-28T18:25:16.353Z,3.70
2023-03-28T18:27:43.978Z,5.68
2023-03-28T18:30:37.054Z,4.20
2023-03-28T18:33:18.894Z,4.13
2023-03-28T18:36:06.290Z,4.13
2023-03-28T18:39:17.665Z,7.25
2023-03-28T18:41:48.480Z,4.50
2023-03-28T18:44:37.539Z,3.95
2023-03-28T18:47:05.670Z,5.68
2023-03-28T18:49:35.446Z,6.00
2023-03-28T18:52:11.498Z,4.93
2023-03-28T18:54:49.563Z,3.10
2023-03-28T18:57:41.185Z,7.07
2023-03-28T19:00:22.412Z,5.60
2023-03-28T19:03:33.009Z,4.35
2023-03-28T19:06:12.845Z,4.55
2023-03-28T19:09:04.223Z,4.93
2023-03-28T19:11:45.272Z,6.60
2023-03-28T19:14:13.942Z,5.15
2023-03-28T19:16:42.227Z,9.27
2023-03-28T19:19:10.484Z,4.80
2023-03-28T19:21:39.026Z,4.95
2023-03-28T19:24:07.440Z,4.85
2023-03-28T19:26:35.726Z,6.50
2023-03-28T19:29:19.228Z,5.90
2023-03-28T19:35:03.180Z,6.78
2023-03-28T19:37:42.797Z,8.20
2023-03-28T19:40:29.267Z,6.10
2023-03-28T19:43:23.959Z,5.80
2023-03-28T19:46:39.251Z,3.80
2023-03-28T19:49:23.767Z,4.25
2023-03-28T19:55:40.093Z,5.40
2023-03-28T19:58:21.884Z,4.07
2023-03-28T20:03:59.232Z,6.35
2023-03-28T20:06:46.584Z,4.47
2023-03-28T20:09:15.102Z,6.28
2023-03-28T20:11:48.438Z,7.75
2023-03-28T20:17:04.362Z,4.72
2023-03-28T20:19:32.053Z,5.00
2023-03-28T20:22:00.527Z,5.15
2023-03-28T20:24:29.578Z,7.03
2023-03-28T20:27:03.785Z,5.15
2023-03-28T20:29:47.401Z,6.35
2023-03-28T20:34:54.598Z,9.75
2023-03-28T20:37:24.213Z,8.15
2023-03-28T20:39:53.945Z,7.25
2023-03-28T20:42:32.235Z,7.53
2023-03-28T20:45:00.677Z,6.57
2023-03-28T20:47:42.430Z,4.75
2023-03-28T20:50:48.604Z,7.15
2023-03-28T20:54:04.539Z,5.90
2023-03-28T20:59:24.302Z,5.10
2023-03-28T21:02:27.758Z,6.30
2023-03-28T21:07:54.411Z,6.22
2023-03-28T21:10:22.600Z,6.18
2023-03-28T21:12:51.156Z,6.35
2023-03-28T21:15:19.113Z,6.82
2023-03-28T21:17:50.094Z,5.05
2023-03-28T21:20:32.648Z,5.78
2023-03-28T21:23:31.113Z,5.22
2023-03-28T21:27:04.864Z,6.78
2023-03-28T21:29:42.728Z,6.43
2023-03-28T21:32:43.270Z,7.97
2023-03-28T21:38:44.507Z,5.75
2023-03-28T21:41:48.327Z,5.90
2023-03-28T21:44:19.264Z,6.40
2023-03-28T21:46:46.915Z,4.72
2023-03-28T21:53:26.004Z,6.18
2023-03-28T21:56:18.496Z,6.38
2023-03-28T21:59:02.255Z,4.18
2023-03-28T22:01:30.334Z,5.28
2023-03-28T22:04:01.723Z,7.03
2023-03-28T22:07:03.873Z,5.63
2023-03-28T22:09:55.570Z,4.97
2023-03-28T22:18:55.828Z,6.65
2023-03-28T22:21:36.441Z,3.03
2023-03-28T22:24:06.603Z,4.95
2023-03-28T22:26:53.784Z,3.55
2023-03-28T22:32:36.718Z,5.38
2023-03-28T22:35:19.054Z,7.50
2023-03-28T22:37:52.913Z,4.72
2023-03-28T22:43:20.708Z,5.97
2023-03-28T22:49:08.187Z,5.38
2023-03-28T22:54:46.901Z,7.10
2023-03-28T23:03:08.605Z,4.75
2023-03-28T23:06:07.098Z,4.93
2023-03-28T23:12:08.241Z,3.13
2023-03-28T23:14:49.926Z,3.80
2023-03-28T23:17:47.911Z,4.82
2023-03-28T23:20:27.534Z,2.55
2023-03-28T23:32:13.505Z,1.88
2023-03-28T23:34:45.559Z,3.22
2023-03-28T23:37:24.098Z,2.67
2023-03-28T23:39:54.419Z,3.08
2023-03-28T23:42:26.563Z,3.17
2023-03-28T23:44:54.825Z,3.13
2023-03-28T23:47:29.737Z,1.65
2023-03-28T23:50:09.649Z,2.63
2023-03-28T23:52:55.467Z,2.10
2023-03-28T23:55:36.244Z,4.95
2023-03-28T23:58:24.839Z,2.50
